createdAt,value
2018-06-13T00:01:26.518Z,18.91
2018-06-13T00:03:54.209Z,18.88
2018-06-13T00:06:21.774Z,18.87
2018-06-13T00:08:49.290Z,18.89
2018-06-13T00:11:16.810Z,18.90
2018-06-13T00:13:44.377Z,18.90
2018-06-13T00:16:11.889Z,18.87
2018-06-13T00:18:39.443Z,18.85
2018-06-13T00:21:06.963Z,18.86
2018-06-13T00:23:34.477Z,18.83
2018-06-13T00:26:02.079Z,18.81
2018-06-13T00:28:29.588Z,18.83
2018-06-13T00:30:57.153Z,18.83
2018-06-13T00:33:24.666Z,18.79
2018-06-13T00:35:52.198Z,18.72
2018-06-13T00:38:19.762Z,18.70
2018-06-13T00:40:47.279Z,18.65
2018-06-13T00:43:14.836Z,18.60
2018-06-13T00:45:42.351Z,18.52
2018-06-13T00:48:09.870Z,18.51
2018-06-13T00:50:37.409Z,18.50
2018-06-13T00:53:05.102Z,18.56
2018-06-13T00:55:32.734Z,18.56
2018-06-13T00:58:00.283Z,18.49
2018-06-13T01:00:27.806Z,18.48
2018-06-13T01:02:55.351Z,18.48
2018-06-13T01:05:22.866Z,18.46
2018-06-13T01:07:50.425Z,18.46
2018-06-13T01:10:17.942Z,18.46
2018-06-13T01:12:45.461Z,18.48
2018-06-13T01:15:13.022Z,18.46
2018-06-13T01:17:40.545Z,18.43
2018-06-13T01:20:08.253Z,18.43
2018-06-13T01:22:35.770Z,18.44
2018-06-13T01:25:03.371Z,18.44
2018-06-13T01:27:30.910Z,18.40
2018-06-13T01:29:58.430Z,18.40
2018-06-13T01:32:25.982Z,18.37
2018-06-13T01:34:53.521Z,18.32
2018-06-13T01:37:21.030Z,18.34
2018-06-13T01:39:48.569Z,18.34
2018-06-13T01:42:16.090Z,18.36
2018-06-13T01:44:43.650Z,18.35
2018-06-13T01:47:11.170Z,18.40
2018-06-13T01:49:38.733Z,18.39
2018-06-13T01:52:06.843Z,18.38
2018-06-13T01:54:34.853Z,18.36
2018-06-13T01:57:02.420Z,18.35
2018-06-13T01:59:29.937Z,18.33
2018-06-13T02:01:57.510Z,18.30
2018-06-13T02:04:25.057Z,18.28
2018-06-13T02:06:52.593Z,18.24
2018-06-13T02:09:20.139Z,18.23
2018-06-13T02:11:47.656Z,18.22
2018-06-13T02:14:15.174Z,18.22
2018-06-13T02:16:42.698Z,18.18
2018-06-13T02:19:10.210Z,18.18
2018-06-13T02:21:37.788Z,18.20
2018-06-13T02:24:05.395Z,18.16
2018-06-13T02:26:32.919Z,18.20
2018-06-13T02:29:00.475Z,18.18
2018-06-13T02:31:27.986Z,18.16
2018-06-13T02:33:55.546Z,18.15
2018-06-13T02:36:23.068Z,18.11
2018-06-13T02:38:50.606Z,18.07
2018-06-13T02:41:18.254Z,18.07
2018-06-13T02:43:45.765Z,18.05
2018-06-13T02:46:13.298Z,18.06
2018-06-13T02:48:40.826Z,18.05
2018-06-13T02:51:08.377Z,18.08
2018-06-13T02:53:36.125Z,18.07
2018-06-13T02:56:03.662Z,18.06
2018-06-13T02:58:31.214Z,18.03
2018-06-13T03:00:58.755Z,18.00
2018-06-13T03:03:26.294Z,18.00
2018-06-13T03:05:53.845Z,17.98
2018-06-13T03:08:21.374Z,17.96
2018-06-13T03:10:48.929Z,17.94
2018-06-13T03:13:16.495Z,17.92
2018-06-13T03:15:44.015Z,17.88
2018-06-13T03:18:11.618Z,17.84
2018-06-13T03:20:39.189Z,17.87
2018-06-13T03:23:06.749Z,17.83
2018-06-13T03:25:34.253Z,17.85
2018-06-13T03:28:01.791Z,17.83
2018-06-13T03:30:29.335Z,17.80
2018-06-13T03:32:56.862Z,17.78
2018-06-13T03:35:24.410Z,17.77
2018-06-13T03:37:52.002Z,17.79
2018-06-13T03:40:19.535Z,17.79
2018-06-13T03:42:47.069Z,17.71
2018-06-13T03:45:14.634Z,17.69
2018-06-13T03:47:42.196Z,17.68
2018-06-13T03:50:09.722Z,17.62
2018-06-13T03:52:37.247Z,17.60
2018-06-13T03:55:04.870Z,17.62
2018-06-13T03:57:32.433Z,17.61
2018-06-13T03:59:59.959Z,17.58
2018-06-13T04:02:27.511Z,17.63
2018-06-13T04:04:55.031Z,17.58
2018-06-13T04:07:22.555Z,17.56
2018-06-13T04:09:50.098Z,17.44
2018-06-13T04:12:17.622Z,17.38
2018-06-13T04:14:45.230Z,17.25
2018-06-13T04:17:12.742Z,17.29
2018-06-13T04:19:40.261Z,17.31
2018-06-13T04:22:07.902Z,17.29
2018-06-13T04:24:35.422Z,17.33
2018-06-13T04:27:02.982Z,17.39
2018-06-13T04:29:30.531Z,17.35
2018-06-13T04:31:58.075Z,17.33
2018-06-13T04:34:25.638Z,17.36
2018-06-13T04:36:53.178Z,17.33
2018-06-13T04:39:20.730Z,17.32
2018-06-13T04:41:48.262Z,17.36
2018-06-13T04:44:15.794Z,17.34
2018-06-13T04:46:43.351Z,17.33
2018-06-13T04:49:10.859Z,17.31
2018-06-13T04:51:38.412Z,17.33
2018-06-13T04:54:05.970Z,17.33
2018-06-13T04:56:33.503Z,17.32
2018-06-13T04:59:01.050Z,17.31
2018-06-13T05:01:28.557Z,17.34
2018-06-13T05:03:56.134Z,17.34
2018-06-13T05:06:23.675Z,17.34
2018-06-13T05:08:51.175Z,17.34
2018-06-13T05:11:18.703Z,17.24
2018-06-13T05:13:46.226Z,17.23
2018-06-13T05:16:13.784Z,17.25
2018-06-13T05:18:41.317Z,17.29
2018-06-13T05:21:08.854Z,17.22
2018-06-13T05:23:36.417Z,17.10
2018-06-13T05:26:03.990Z,17.14
2018-06-13T05:28:31.551Z,17.15
2018-06-13T05:30:59.071Z,17.17
2018-06-13T05:33:26.606Z,17.17
2018-06-13T05:35:54.156Z,17.18
2018-06-13T05:38:21.673Z,17.20
2018-06-13T05:40:49.282Z,17.26
2018-06-13T05:43:16.815Z,17.28
2018-06-13T05:45:44.358Z,17.31
2018-06-13T05:48:11.910Z,17.33
2018-06-13T05:50:39.446Z,17.39
2018-06-13T05:53:07.003Z,17.49
2018-06-13T05:55:34.514Z,17.58
2018-06-13T05:58:02.054Z,17.61
2018-06-13T06:00:29.602Z,17.64
2018-06-13T06:02:57.112Z,17.67
2018-06-13T06:05:24.706Z,17.86
2018-06-13T06:07:52.237Z,17.95
2018-06-13T06:10:19.789Z,17.97
2018-06-13T06:12:47.299Z,18.00
2018-06-13T06:15:14.818Z,18.05
2018-06-13T06:17:42.383Z,18.02
2018-06-13T06:20:09.974Z,18.02
2018-06-13T06:22:37.498Z,18.10
2018-06-13T06:25:05.080Z,18.17
2018-06-13T06:27:32.614Z,18.21
2018-06-13T06:30:00.167Z,18.18
2018-06-13T06:32:27.678Z,18.19
2018-06-13T06:34:55.189Z,18.19
2018-06-13T06:37:23.004Z,18.20
2018-06-13T06:39:50.572Z,18.15
2018-06-13T06:42:18.131Z,18.16
2018-06-13T06:44:45.702Z,18.19
2018-06-13T06:47:13.234Z,18.21
2018-06-13T06:49:40.821Z,18.31
2018-06-13T06:52:08.330Z,18.46
2018-06-13T06:54:35.876Z,18.59
2018-06-13T06:57:03.389Z,18.72
2018-06-13T06:59:30.897Z,18.85
2018-06-13T07:01:58.434Z,19.00
2018-06-13T07:04:25.944Z,19.17
2018-06-13T07:06:53.505Z,19.23
2018-06-13T07:09:21.019Z,19.32
2018-06-13T07:11:48.541Z,19.30
2018-06-13T07:14:16.087Z,19.43
2018-06-13T07:16:43.593Z,19.41
2018-06-13T07:19:11.134Z,19.53
2018-06-13T07:21:38.663Z,19.57
2018-06-13T07:24:06.227Z,19.48
2018-06-13T07:26:33.774Z,19.52
2018-06-13T07:29:01.306Z,19.58
2018-06-13T07:31:28.846Z,19.84
2018-06-13T07:33:56.370Z,20.12
2018-06-13T07:36:23.891Z,20.38
2018-06-13T07:38:51.437Z,20.64
2018-06-13T07:41:18.934Z,20.75
2018-06-13T07:43:46.538Z,20.95
2018-06-13T07:46:14.065Z,21.16
2018-06-13T07:48:41.598Z,21.38
2018-06-13T07:51:09.163Z,21.42
2018-06-13T07:53:36.686Z,20.95
2018-06-13T07:56:04.279Z,20.60
2018-06-13T07:58:31.846Z,20.48
2018-06-13T08:00:59.376Z,20.25
2018-06-13T08:03:26.933Z,20.07
2018-06-13T08:05:54.449Z,19.96
2018-06-13T08:08:21.991Z,19.98
2018-06-13T08:10:49.528Z,19.98
2018-06-13T08:13:17.038Z,19.96
2018-06-13T08:15:45.134Z,19.94
2018-06-13T08:18:12.671Z,19.91
2018-06-13T08:20:40.270Z,19.79
2018-06-13T08:23:07.785Z,19.80
2018-06-13T08:25:35.375Z,19.77
2018-06-13T08:28:03.689Z,19.59
2018-06-13T08:30:31.238Z,19.51
2018-06-13T08:32:58.795Z,19.48
2018-06-13T08:35:26.318Z,19.61
2018-06-13T08:37:53.885Z,19.49
2018-06-13T08:40:21.446Z,19.48
2018-06-13T08:42:48.982Z,19.38
2018-06-13T08:45:16.531Z,19.37
2018-06-13T08:47:44.579Z,19.39
2018-06-13T08:50:12.102Z,19.26
2018-06-13T08:52:39.630Z,19.26
2018-06-13T08:55:07.147Z,19.20
2018-06-13T08:57:34.666Z,19.29
2018-06-13T09:00:02.231Z,19.34
2018-06-13T09:02:29.738Z,19.30
2018-06-13T09:04:57.242Z,19.14
2018-06-13T09:07:24.782Z,19.17
2018-06-13T09:09:52.286Z,19.19
2018-06-13T09:12:19.858Z,19.26
2018-06-13T09:14:47.390Z,19.28
2018-06-13T09:17:14.906Z,19.32
2018-06-13T09:19:42.450Z,19.31
2018-06-13T09:22:10.001Z,19.45
2018-06-13T09:24:37.575Z,19.52
2018-06-13T09:27:05.127Z,19.57
2018-06-13T09:29:32.666Z,19.46
2018-06-13T09:32:00.200Z,19.71
2018-06-13T09:34:27.740Z,19.73
2018-06-13T09:36:55.322Z,19.48
2018-06-13T09:39:22.842Z,19.27
2018-06-13T09:41:55.938Z,19.14
2018-06-13T09:44:23.474Z,19.05
2018-06-13T09:46:50.981Z,19.06
2018-06-13T09:49:18.510Z,19.19
2018-06-13T09:51:46.071Z,19.32
2018-06-13T09:54:13.633Z,19.48
2018-06-13T09:56:41.276Z,19.57
2018-06-13T09:59:13.295Z,19.50
2018-06-13T10:02:18.346Z,19.52
2018-06-13T10:04:46.966Z,19.52
2018-06-13T10:07:14.554Z,19.61
2018-06-13T10:09:42.117Z,19.57
2018-06-13T10:12:09.703Z,19.53
2018-06-13T10:14:37.246Z,19.31
2018-06-13T10:17:04.808Z,19.25
2018-06-13T10:19:32.336Z,19.20
2018-06-13T10:21:59.941Z,19.18
2018-06-13T10:24:27.471Z,18.94
2018-06-13T10:26:54.990Z,18.87
2018-06-13T10:29:29.116Z,18.72
2018-06-13T10:31:56.644Z,18.86
2018-06-13T10:34:24.279Z,19.14
2018-06-13T10:36:51.788Z,19.36
2018-06-13T10:39:19.329Z,19.43
2018-06-13T10:41:46.870Z,19.60
2018-06-13T10:44:14.410Z,19.96
2018-06-13T10:46:42.039Z,20.52
2018-06-13T10:49:09.595Z,20.42
2018-06-13T10:51:37.132Z,20.58
2018-06-13T10:54:04.692Z,20.86
2018-06-13T10:56:32.231Z,20.79
2018-06-13T10:58:59.775Z,20.92
2018-06-13T11:01:27.289Z,21.12
2018-06-13T11:03:54.822Z,21.29
2018-06-13T11:06:22.361Z,21.26
2018-06-13T11:08:49.886Z,21.01
2018-06-13T11:11:17.434Z,20.92
2018-06-13T11:13:44.986Z,20.89
2018-06-13T11:16:12.515Z,20.50
2018-06-13T11:18:40.051Z,20.16
2018-06-13T11:21:07.579Z,20.09
2018-06-13T11:23:35.102Z,19.98
2018-06-13T11:26:02.668Z,19.87
2018-06-13T11:28:30.193Z,19.93
2018-06-13T11:30:57.718Z,19.80
2018-06-13T11:33:25.242Z,19.70
2018-06-13T11:35:52.794Z,19.65
2018-06-13T11:38:20.318Z,19.65
2018-06-13T11:40:47.843Z,19.63
2018-06-13T11:43:15.393Z,19.53
2018-06-13T11:45:42.918Z,19.29
2018-06-13T11:48:10.479Z,19.00
2018-06-13T11:50:37.998Z,19.02
2018-06-13T11:53:05.554Z,19.04
2018-06-13T11:55:33.572Z,18.97
2018-06-13T11:58:01.138Z,18.87
2018-06-13T12:00:28.719Z,18.79
2018-06-13T12:02:56.245Z,18.70
2018-06-13T12:05:23.787Z,18.67
2018-06-13T12:07:51.568Z,18.69
2018-06-13T12:10:19.106Z,18.81
2018-06-13T12:12:46.658Z,18.81
2018-06-13T12:15:14.210Z,18.78
2018-06-13T12:17:41.746Z,18.77
2018-06-13T12:20:09.331Z,18.86
2018-06-13T12:22:36.849Z,18.89
2018-06-13T12:25:04.457Z,18.88
2018-06-13T12:27:31.987Z,18.89
2018-06-13T12:29:59.510Z,19.00
2018-06-13T12:32:27.063Z,19.04
2018-06-13T12:34:54.590Z,19.12
2018-06-13T12:37:22.138Z,19.01
2018-06-13T12:39:49.674Z,18.97
2018-06-13T12:42:17.246Z,19.31
2018-06-13T12:44:44.782Z,19.58
2018-06-13T12:47:12.294Z,19.81
2018-06-13T12:49:39.831Z,19.97
2018-06-13T12:52:07.334Z,20.12
2018-06-13T12:54:34.861Z,20.56
2018-06-13T12:57:02.939Z,20.78
2018-06-13T12:59:30.438Z,20.60
2018-06-13T13:01:57.974Z,20.48
2018-06-13T13:04:25.473Z,20.46
2018-06-13T13:06:53.071Z,20.53
2018-06-13T13:09:20.607Z,20.35
2018-06-13T13:11:48.114Z,20.25
2018-06-13T13:14:15.679Z,20.16
2018-06-13T13:16:43.218Z,20.02
2018-06-13T13:19:10.754Z,19.74
2018-06-13T13:21:38.369Z,19.57
2018-06-13T13:24:05.898Z,19.51
2018-06-13T13:26:33.470Z,19.60
2018-06-13T13:29:01.162Z,19.71
2018-06-13T13:31:28.712Z,19.87
2018-06-13T13:33:56.258Z,19.98
2018-06-13T13:36:23.879Z,20.12
2018-06-13T13:38:51.430Z,20.19
2018-06-13T13:41:18.974Z,20.17
2018-06-13T13:43:46.499Z,20.21
2018-06-13T13:46:14.150Z,20.18
2018-06-13T13:48:41.718Z,20.20
2018-06-13T13:51:09.279Z,20.10
2018-06-13T13:53:36.798Z,20.00
2018-06-13T13:56:04.409Z,20.01
2018-06-13T13:58:31.995Z,20.11
2018-06-13T14:00:59.559Z,20.01
2018-06-13T14:03:27.113Z,19.86
2018-06-13T14:05:54.702Z,19.81
2018-06-13T14:08:22.258Z,19.65
2018-06-13T14:10:49.868Z,19.54
2018-06-13T14:13:17.402Z,19.52
2018-06-13T14:15:45.038Z,19.46
2018-06-13T14:18:12.571Z,19.49
2018-06-13T14:20:40.121Z,19.31
2018-06-13T14:23:07.688Z,19.29
2018-06-13T14:25:35.202Z,19.22
2018-06-13T14:28:02.779Z,19.08
2018-06-13T14:30:30.329Z,18.96
2018-06-13T14:32:57.976Z,19.04
2018-06-13T14:35:25.748Z,19.13
2018-06-13T14:37:53.277Z,19.31
2018-06-13T14:40:20.838Z,19.34
2018-06-13T14:42:48.370Z,19.35
2018-06-13T14:45:15.894Z,19.11
2018-06-13T14:47:43.478Z,19.17
2018-06-13T14:50:11.019Z,19.34
2018-06-13T14:52:38.609Z,19.44
2018-06-13T14:55:06.155Z,19.35
2018-06-13T14:57:33.670Z,19.47
2018-06-13T15:00:01.222Z,19.42
2018-06-13T15:02:28.750Z,19.51
2018-06-13T15:04:56.315Z,19.44
2018-06-13T15:07:23.858Z,19.38
2018-06-13T15:09:51.374Z,19.32
2018-06-13T15:12:18.902Z,19.20
2018-06-13T15:14:46.414Z,19.25
2018-06-13T15:17:13.950Z,19.04
2018-06-13T15:19:41.473Z,18.98
2018-06-13T15:22:09.056Z,19.01
2018-06-13T15:24:36.605Z,19.06
2018-06-13T15:27:04.196Z,18.96
2018-06-13T15:29:31.715Z,18.85
2018-06-13T15:31:59.330Z,18.68
2018-06-13T15:34:26.962Z,18.58
2018-06-13T15:36:54.550Z,18.62
2018-06-13T15:39:22.112Z,18.43
2018-06-13T15:41:49.640Z,18.36
2018-06-13T15:44:17.208Z,18.38
2018-06-13T15:46:44.740Z,18.34
2018-06-13T15:49:12.258Z,18.30
2018-06-13T15:51:39.848Z,18.25
2018-06-13T15:54:08.395Z,18.25
2018-06-13T15:56:36.034Z,18.21
2018-06-13T15:59:03.715Z,18.18
2018-06-13T16:01:31.678Z,18.09
2018-06-13T16:03:59.254Z,17.98
2018-06-13T16:06:26.842Z,17.93
2018-06-13T16:08:54.519Z,17.94
2018-06-13T16:11:22.100Z,17.98
2018-06-13T16:13:49.666Z,17.97
2018-06-13T16:16:17.235Z,17.93
2018-06-13T16:18:44.790Z,17.91
2018-06-13T16:21:12.370Z,17.88
2018-06-13T16:23:39.915Z,17.78
2018-06-13T16:26:07.539Z,17.78
2018-06-13T16:28:35.082Z,17.64
2018-06-13T16:31:02.635Z,17.61
2018-06-13T16:33:30.214Z,17.48
2018-06-13T16:35:57.810Z,17.31
2018-06-13T16:38:25.314Z,17.28
2018-06-13T16:40:52.893Z,17.28
2018-06-13T16:43:20.421Z,17.26
2018-06-13T16:45:47.978Z,17.22
2018-06-13T16:48:15.538Z,17.21
2018-06-13T16:50:54.311Z,17.19
2018-06-13T16:53:33.206Z,17.15
2018-06-13T16:56:01.162Z,17.11
2018-06-13T16:58:28.675Z,17.08
2018-06-13T17:00:56.206Z,17.01
2018-06-13T17:03:23.770Z,17.00
2018-06-13T17:05:51.310Z,16.94
2018-06-13T17:08:18.919Z,16.90
2018-06-13T17:10:46.474Z,16.89
2018-06-13T17:13:14.006Z,16.89
2018-06-13T17:15:41.584Z,16.96
2018-06-13T17:18:09.102Z,16.92
2018-06-13T17:20:36.654Z,16.86
2018-06-13T17:23:04.262Z,16.75
2018-06-13T17:25:31.783Z,16.71
2018-06-13T17:27:59.345Z,16.71
2018-06-13T17:30:26.859Z,16.72
2018-06-13T17:32:54.399Z,16.62
2018-06-13T17:35:21.950Z,16.54
2018-06-13T17:37:49.462Z,16.38
2018-06-13T17:40:18.151Z,16.09
2018-06-13T17:42:45.690Z,16.09
2018-06-13T17:45:13.240Z,16.13
2018-06-13T17:47:40.771Z,16.11
2018-06-13T17:50:08.367Z,16.09
2018-06-13T17:52:35.906Z,16.15
2018-06-13T17:55:03.474Z,16.06
2018-06-13T17:57:31.034Z,15.97
2018-06-13T17:59:58.578Z,15.90
2018-06-13T18:02:26.111Z,15.95
2018-06-13T18:04:53.646Z,15.82
2018-06-13T18:07:21.146Z,15.82
2018-06-13T18:09:48.707Z,15.72
2018-06-13T18:12:16.226Z,15.68
2018-06-13T18:14:43.754Z,15.66
2018-06-13T18:17:11.304Z,15.76
2018-06-13T18:19:38.844Z,15.85
2018-06-13T18:22:06.427Z,15.87
2018-06-13T18:24:34.018Z,15.93
2018-06-13T18:27:01.521Z,15.97
2018-06-13T18:29:29.043Z,16.06
2018-06-13T18:31:56.565Z,16.09
2018-06-13T18:34:24.126Z,16.06
2018-06-13T18:36:51.670Z,16.14
2018-06-13T18:39:19.182Z,16.19
2018-06-13T18:41:46.718Z,16.19
2018-06-13T18:44:14.238Z,16.24
2018-06-13T18:46:41.774Z,16.28
2018-06-13T18:49:09.302Z,16.27
2018-06-13T18:51:36.827Z,16.26
2018-06-13T18:54:04.483Z,16.24
2018-06-13T18:56:32.004Z,16.26
2018-06-13T18:58:59.563Z,16.23
2018-06-13T19:01:27.095Z,16.25
2018-06-13T19:03:54.678Z,16.23
2018-06-13T19:06:22.199Z,16.20
2018-06-13T19:08:49.718Z,16.11
2018-06-13T19:11:17.373Z,16.04
2018-06-13T19:13:44.806Z,16.05
2018-06-13T19:16:12.333Z,16.01
2018-06-13T19:18:39.870Z,15.94
2018-06-13T19:21:07.383Z,16.02
2018-06-13T19:23:34.934Z,15.98
2018-06-13T19:26:02.465Z,16.03
2018-06-13T19:28:29.990Z,16.04
2018-06-13T19:30:57.527Z,16.03
2018-06-13T19:33:25.138Z,16.02
2018-06-13T19:35:52.682Z,15.96
2018-06-13T19:38:20.202Z,15.87
2018-06-13T19:40:47.764Z,15.96
2018-06-13T19:43:20.902Z,15.99
2018-06-13T19:45:48.410Z,15.90
2018-06-13T19:48:21.537Z,15.88
2018-06-13T19:50:49.066Z,15.92
2018-06-13T19:53:22.429Z,15.96
2018-06-13T19:56:09.730Z,15.98
2018-06-13T19:58:38.108Z,16.01
2018-06-13T20:01:05.950Z,15.96
2018-06-13T20:03:39.150Z,15.92
2018-06-13T20:06:06.766Z,15.82
2018-06-13T20:08:34.422Z,15.83
2018-06-13T20:11:02.176Z,15.86
2018-06-13T20:13:35.306Z,15.97
2018-06-13T20:16:08.479Z,16.04
2018-06-13T20:18:41.645Z,16.00
2018-06-13T20:21:10.168Z,16.05
2018-06-13T20:23:37.957Z,16.00
2018-06-13T20:26:10.917Z,15.91
2018-06-13T20:28:43.878Z,15.91
2018-06-13T20:31:18.152Z,15.73
2018-06-13T20:33:45.702Z,15.81
2018-06-13T20:36:13.248Z,15.82
2018-06-13T20:38:40.750Z,15.72
2018-06-13T20:41:08.346Z,15.79
2018-06-13T20:43:35.886Z,15.79
2018-06-13T20:46:03.466Z,15.81
2018-06-13T20:48:31.007Z,15.87
2018-06-13T20:50:58.583Z,15.94
2018-06-13T20:53:26.106Z,15.83
2018-06-13T20:55:53.618Z,15.88
2018-06-13T20:58:21.158Z,15.89
2018-06-13T21:00:48.725Z,15.91
2018-06-13T21:03:16.243Z,15.90
2018-06-13T21:05:43.779Z,15.88
2018-06-13T21:08:11.342Z,15.89
2018-06-13T21:10:38.851Z,15.91
2018-06-13T21:13:06.390Z,15.92
2018-06-13T21:15:33.910Z,15.93
2018-06-13T21:18:01.463Z,15.89
2018-06-13T21:20:29.022Z,15.79
2018-06-13T21:22:56.556Z,15.85
2018-06-13T21:25:24.126Z,15.93
2018-06-13T21:27:51.646Z,15.90
2018-06-13T21:30:19.157Z,15.95
2018-06-13T21:32:46.695Z,15.92
2018-06-13T21:35:14.223Z,15.96
2018-06-13T21:37:41.774Z,16.00
2018-06-13T21:40:09.312Z,15.89
2018-06-13T21:42:36.845Z,15.87
2018-06-13T21:45:04.402Z,15.91
2018-06-13T21:47:31.914Z,15.88
2018-06-13T21:49:59.478Z,15.86
2018-06-13T21:52:27.014Z,15.88
2018-06-13T21:54:54.601Z,15.80
2018-06-13T21:57:22.158Z,15.82
2018-06-13T21:59:49.666Z,15.81
2018-06-13T22:02:17.239Z,15.83
2018-06-13T22:04:44.759Z,15.88
2018-06-13T22:07:12.319Z,15.90
2018-06-13T22:09:39.863Z,15.86
2018-06-13T22:12:07.401Z,15.88
2018-06-13T22:14:34.960Z,15.79
2018-06-13T22:17:02.522Z,15.82
2018-06-13T22:19:30.035Z,15.94
2018-06-13T22:21:57.587Z,16.00
2018-06-13T22:24:25.102Z,15.90
2018-06-13T22:26:52.666Z,15.88
2018-06-13T22:29:20.195Z,15.89
2018-06-13T22:31:47.710Z,15.94
2018-06-13T22:34:15.238Z,15.90
2018-06-13T22:36:42.755Z,15.86
2018-06-13T22:39:11.911Z,15.89
2018-06-13T22:41:39.449Z,15.93
2018-06-13T22:44:06.986Z,15.94
2018-06-13T22:46:34.530Z,15.87
2018-06-13T22:49:02.070Z,15.85
2018-06-13T22:51:29.658Z,15.76
2018-06-13T22:53:57.250Z,15.77
2018-06-13T22:56:24.869Z,15.84
2018-06-13T22:58:52.409Z,15.83
2018-06-13T23:01:19.950Z,15.83
2018-06-13T23:03:47.503Z,15.83
2018-06-13T23:06:15.027Z,15.81
2018-06-13T23:08:42.538Z,15.85
2018-06-13T23:11:10.079Z,15.88
2018-06-13T23:13:37.619Z,15.80
2018-06-13T23:16:05.207Z,15.86
2018-06-13T23:18:32.783Z,15.84
2018-06-13T23:21:00.310Z,15.75
2018-06-13T23:23:27.829Z,15.78
2018-06-13T23:25:56.104Z,15.80
2018-06-13T23:28:23.675Z,15.84
2018-06-13T23:30:51.186Z,15.89
2018-06-13T23:33:18.894Z,15.80
2018-06-13T23:35:46.410Z,15.83
2018-06-13T23:38:14.358Z,15.82
2018-06-13T23:40:41.910Z,15.83
2018-06-13T23:43:09.426Z,15.86
2018-06-13T23:45:36.962Z,15.94
2018-06-13T23:48:04.543Z,15.91
2018-06-13T23:50:32.062Z,15.87
2018-06-13T23:52:59.843Z,15.86
2018-06-13T23:55:27.410Z,15.80
2018-06-13T23:57:54.902Z,15.79
